Time;durP1;ratioP1;P1;durP2;ratioP2;P2;SDS_P1;SDS_P2;PMS_P1;PMS_P2;Temp;Humidity;BMP_temperature;BMP_pressure;BME280_temperature;BME280_humidity;BME280_pressure;Samples;Min_cycle;Max_cycle;Signal;HPM_P1;HPM_P2
2023/01/02 00:00:47;;;;;;;18.35;9.10;;;;;;;5.99;100.00;98744.81;2601801;28;20103;-86
2023/01/02 00:02:12;;;;;;;15.50;8.85;;;;;;;5.79;100.00;98735.38;2597730;28;20718;-84
2023/01/02 00:03:28;;;;;;;18.65;8.90;;;;;;;5.36;100.00;98738.09;2602053;28;20080;-86
2023/01/02 00:04:44;;;;;;;19.60;9.02;;;;;;;5.61;100.00;98740.66;2603172;28;20111;-85
2023/01/02 00:06:02;;;;;;;20.60;9.55;;;;;;;5.79;100.00;98734.50;2601253;28;20053;-84
2023/01/02 00:07:18;;;;;;;27.40;9.93;;;;;;;5.99;100.00;98729.22;2602620;28;20105;-85
2023/01/02 00:08:33;;;;;;;20.10;8.98;;;;;;;5.91;100.00;98724.06;2601306;28;20045;-84
2023/01/02 00:09:49;;;;;;;16.60;8.45;;;;;;;5.79;100.00;98726.69;2602402;28;20476;-84
2023/01/02 00:11:04;;;;;;;16.33;8.07;;;;;;;5.79;100.00;98724.97;2603220;28;20059;-84
2023/01/02 00:12:20;;;;;;;19.45;8.40;;;;;;;5.81;100.00;98719.78;2597570;28;20365;-84
2023/01/02 00:13:35;;;;;;;17.63;9.00;;;;;;;5.76;100.00;98717.22;2603342;28;20407;-88
2023/01/02 00:14:51;;;;;;;19.35;9.15;;;;;;;5.63;100.00;98715.53;2600911;28;20057;-86
2023/01/02 00:16:07;;;;;;;19.92;9.32;;;;;;;5.51;100.00;98711.22;2597270;28;20053;-84
2023/01/02 00:17:23;;;;;;;17.33;8.65;;;;;;;5.36;100.00;98706.94;2602404;28;20049;-85
2023/01/02 00:18:38;;;;;;;18.48;8.68;;;;;;;5.22;100.00;98705.25;2603368;28;20049;-86
2023/01/02 00:19:55;;;;;;;19.13;8.70;;;;;;;4.90;100.00;98705.28;2601926;28;20061;-84
2023/01/02 00:21:11;;;;;;;18.88;8.73;;;;;;;4.76;100.00;98692.34;2597440;28;20053;-84
2023/01/02 00:22:27;;;;;;;17.83;8.60;;;;;;;4.80;100.00;98692.31;2601274;28;20124;-84
2023/01/02 00:23:43;;;;;;;23.90;10.45;;;;;;;4.90;100.00;98698.38;2602243;28;20060;-87
2023/01/02 00:24:58;;;;;;;22.20;9.73;;;;;;;4.99;100.00;98696.63;2601998;28;20072;-84
2023/01/02 00:26:14;;;;;;;23.25;11.00;;;;;;;5.14;100.00;98682.78;2602426;28;20085;-84
2023/01/02 00:27:29;;;;;;;19.67;9.00;;;;;;;5.22;100.00;98683.59;2602754;28;20060;-84
2023/01/02 00:28:45;;;;;;;23.45;10.10;;;;;;;5.40;100.00;98682.69;2601631;28;20045;-84
2023/01/02 00:30:01;;;;;;;21.02;9.27;;;;;;;5.21;100.00;98679.28;2601773;28;20049;-84
2023/01/02 00:31:17;;;;;;;20.58;10.00;;;;;;;5.55;100.00;98686.09;2602150;28;20489;-84
2023/01/02 00:32:32;;;;;;;19.02;8.73;;;;;;;5.77;100.00;98685.16;2603121;28;20049;-84
2023/01/02 00:33:47;;;;;;;21.25;9.13;;;;;;;5.86;100.00;98679.06;2601200;28;20060;-85
2023/01/02 00:35:03;;;;;;;20.58;9.05;;;;;;;5.93;100.00;98685.94;2601048;28;20065;-84
2023/01/02 00:36:19;;;;;;;17.95;8.77;;;;;;;5.95;100.00;98685.94;2602110;28;20080;-84
2023/01/02 00:37:35;;;;;;;22.58;10.57;;;;;;;5.96;100.00;98679.84;2601005;28;20041;-84
2023/01/02 00:38:53;;;;;;;24.48;9.80;;;;;;;6.00;100.00;98680.72;2603327;28;20053;-85
2023/01/02 00:40:12;;;;;;;21.23;9.07;;;;;;;6.05;100.00;98684.16;2602106;28;20631;-84
2023/01/02 00:41:28;;;;;;;18.30;8.90;;;;;;;5.96;100.00;98687.66;2601887;28;20615;-85
2023/01/02 00:42:44;;;;;;;18.60;8.80;;;;;;;5.96;100.00;98682.47;2601892;28;20053;-85
2023/01/02 00:43:59;;;;;;;22.10;9.73;;;;;;;5.85;100.00;98679.94;2602451;28;20058;-84
2023/01/02 00:45:15;;;;;;;32.17;13.00;;;;;;;5.84;100.00;98682.50;2599945;28;20657;-85
2023/01/02 00:46:31;;;;;;;31.55;12.35;;;;;;;5.79;100.00;98672.13;2603164;28;20126;-84
2023/01/02 00:47:46;;;;;;;22.65;10.32;;;;;;;5.46;100.00;98677.50;2602449;28;20053;-85
2023/01/02 00:49:02;;;;;;;24.88;10.50;;;;;;;5.35;100.00;98671.47;2601030;28;20056;-84
2023/01/02 00:50:17;;;;;;;24.23;10.02;;;;;;;5.54;100.00;98674.00;2602922;28;20056;-85
2023/01/02 00:51:33;;;;;;;17.70;9.35;;;;;;;5.20;100.00;98668.06;2602613;28;20116;-89
2023/01/02 00:52:49;;;;;;;21.95;9.30;;;;;;;5.29;100.00;98671.47;2601916;28;20191;-86
2023/01/02 00:54:04;;;;;;;21.67;9.95;;;;;;;5.39;100.00;98665.38;2602610;28;20118;-85
2023/01/02 00:55:20;;;;;;;23.45;10.18;;;;;;;5.53;100.00;98677.47;2600395;28;20526;-84
2023/01/02 00:56:36;;;;;;;20.05;9.88;;;;;;;5.26;100.00;98679.28;2601744;28;20053;-87
2023/01/02 00:57:51;;;;;;;23.50;10.07;;;;;;;5.11;100.00;98675.84;2600890;28;20053;-85
2023/01/02 00:59:07;;;;;;;22.67;10.18;;;;;;;5.35;100.00;98680.09;2601251;28;20057;-84
2023/01/02 01:00:23;;;;;;;21.63;9.52;;;;;;;5.11;100.00;98678.44;2601819;28;20046;-84
2023/01/02 01:01:38;;;;;;;23.25;9.57;;;;;;;5.16;100.00;98676.69;2601843;28;20045;-84
2023/01/02 01:02:56;;;;;;;19.08;9.23;;;;;;;5.25;100.00;98677.56;2603289;28;20670;-85
2023/01/02 01:04:11;;;;;;;20.95;9.73;;;;;;;5.36;100.00;98680.97;2601304;28;20080;-84
2023/01/02 01:05:28;;;;;;;21.52;9.93;;;;;;;5.32;100.00;98674.09;2601504;28;20255;-84
2023/01/02 01:06:44;;;;;;;20.25;9.75;;;;;;;5.35;100.00;98677.50;2597459;28;20411;-85
2023/01/02 01:07:59;;;;;;;21.65;9.98;;;;;;;5.41;100.00;98676.63;2600356;28;20049;-84
2023/01/02 01:09:15;;;;;;;24.33;10.63;;;;;;;5.49;100.00;98684.38;2601547;28;20049;-85
2023/01/02 01:10:30;;;;;;;23.20;10.65;;;;;;;5.41;100.00;98679.22;2596783;28;20141;-84
2023/01/02 01:11:46;;;;;;;24.00;10.93;;;;;;;5.37;100.00;98678.38;2601937;28;20082;-85
2023/01/02 01:13:02;;;;;;;25.70;11.60;;;;;;;5.44;100.00;98683.56;2603171;28;20049;-85
2023/01/02 01:14:18;;;;;;;22.85;10.30;;;;;;;5.37;100.00;98685.31;2601772;28;20051;-84
2023/01/02 01:15:34;;;;;;;24.55;10.68;;;;;;;5.37;100.00;98682.72;2597258;28;20213;-85
2023/01/02 01:16:50;;;;;;;22.65;10.93;;;;;;;5.49;100.00;98687.00;2602429;28;20143;-84
2023/01/02 01:18:05;;;;;;;24.20;11.13;;;;;;;5.54;100.00;98684.38;2600784;28;20080;-86
2023/01/02 01:19:21;;;;;;;21.98;10.15;;;;;;;5.59;100.00;98686.09;2601319;28;20045;-86
2023/01/02 01:20:38;;;;;;;21.75;10.32;;;;;;;5.63;100.00;98684.34;2603323;28;20044;-85
2023/01/02 01:21:54;;;;;;;22.65;9.63;;;;;;;5.61;100.00;98686.09;2600643;28;20084;-85
2023/01/02 01:23:09;;;;;;;22.90;10.57;;;;;;;5.65;100.00;98695.59;2598935;28;20060;-84
2023/01/02 01:24:25;;;;;;;23.30;10.27;;;;;;;5.45;100.00;98683.56;2601407;28;20045;-85
2023/01/02 01:25:40;;;;;;;24.38;10.43;;;;;;;5.51;100.00;98691.31;2600695;28;20176;-86
2023/01/02 01:26:56;;;;;;;23.02;10.85;;;;;;;5.41;100.00;98694.81;2603259;28;20080;-85
2023/01/02 01:28:12;;;;;;;30.00;12.30;;;;;;;5.39;100.00;98698.28;2600331;28;20559;-84
2023/01/02 01:29:27;;;;;;;24.17;11.95;;;;;;;5.53;100.00;98693.03;2602008;28;20048;-84
2023/01/02 01:30:43;;;;;;;25.17;11.05;;;;;;;5.38;100.00;98694.81;2603148;28;20053;-83
2023/01/02 01:31:59;;;;;;;26.30;10.60;;;;;;;5.16;100.00;98687.06;2603194;28;20074;-84
2023/01/02 01:33:14;;;;;;;25.67;10.45;;;;;;;5.06;100.00;98703.56;2601485;28;20053;-85
2023/01/02 01:34:30;;;;;;;25.52;10.52;;;;;;;5.19;100.00;98702.66;2601182;28;20104;-85
2023/01/02 01:35:45;;;;;;;20.23;9.30;;;;;;;5.43;100.00;98703.44;2601516;28;20049;-84
2023/01/02 01:37:01;;;;;;;25.40;10.90;;;;;;;5.43;100.00;98702.59;2596925;28;20404;-85
2023/01/02 01:38:17;;;;;;;20.33;9.35;;;;;;;5.60;100.00;98705.16;2601072;28;20053;-85
2023/01/02 01:39:32;;;;;;;25.70;10.25;;;;;;;5.46;100.00;98711.25;2601248;28;20484;-84
2023/01/02 01:40:48;;;;;;;21.98;9.80;;;;;;;5.19;100.00;98712.16;2600425;28;20515;-84
2023/01/02 01:42:04;;;;;;;27.65;11.52;;;;;;;5.34;100.00;98719.06;2601976;28;20052;-84
2023/01/02 01:43:43;;;;;;;32.00;12.82;;;;;;;5.50;100.00;98714.69;2602897;28;20054;-84
2023/01/02 01:44:58;;;;;;;28.77;13.02;;;;;;;5.35;100.00;98715.59;2601867;28;20044;-84
2023/01/02 01:46:34;;;;;;;28.83;12.77;;;;;;;5.57;100.00;98716.41;2596312;28;20052;-85
2023/01/02 01:47:55;;;;;;;31.25;13.23;;;;;;;5.83;100.00;98711.97;2601343;28;20146;-84
2023/01/02 01:49:14;;;;;;;33.35;12.93;;;;;;;5.77;100.00;98718.06;2602935;28;20072;-85
2023/01/02 01:50:32;;;;;;;34.55;13.65;;;;;;;5.68;100.00;98712.91;2601227;28;20053;-84
2023/01/02 01:52:12;;;;;;;30.85;12.68;;;;;;;5.59;100.00;98713.81;2601102;28;20048;-85
2023/01/02 01:53:28;;;;;;;28.30;10.90;;;;;;;5.33;100.00;98719.94;2601048;28;20144;-85
2023/01/02 01:54:57;;;;;;;31.88;13.07;;;;;;;5.46;100.00;98720.75;2602667;28;20511;-84
2023/01/02 01:56:13;;;;;;;26.33;12.20;;;;;;;5.49;100.00;98721.63;2602420;28;20052;-85
2023/01/02 01:57:34;;;;;;;30.30;12.32;;;;;;;5.42;100.00;98726.84;2601392;28;20135;-84
2023/01/02 01:58:50;;;;;;;32.72;12.95;;;;;;;5.60;100.00;98728.53;2602976;28;20480;-85
2023/01/02 02:00:07;;;;;;;26.42;12.32;;;;;;;5.83;100.00;98724.97;2598766;28;20049;-84
2023/01/02 02:01:22;;;;;;;28.10;12.65;;;;;;;5.87;100.00;98727.53;2601981;28;20481;-84
2023/01/02 02:02:42;;;;;;;29.10;13.25;;;;;;;6.07;100.00;98729.22;2602245;28;20087;-84
2023/01/02 02:03:59;;;;;;;26.92;11.65;;;;;;;5.91;100.00;98733.59;2602090;28;20068;-85
2023/01/02 02:05:20;;;;;;;29.50;12.88;;;;;;;6.03;100.00;98732.69;2601107;28;20506;-84
2023/01/02 02:06:37;;;;;;;31.88;12.48;;;;;;;6.08;100.00;98733.56;2600262;28;20050;-85
2023/01/02 02:08:01;;;;;;;29.00;13.00;;;;;;;5.98;100.00;98729.25;2601009;28;20068;-84
2023/01/02 02:09:32;;;;;;;31.25;12.38;;;;;;;6.00;100.00;98732.69;2600862;28;20645;-85
2023/01/02 02:10:49;;;;;;;28.67;12.10;;;;;;;6.13;100.00;98739.59;2601496;28;20080;-85
2023/01/02 02:12:05;;;;;;;30.38;13.43;;;;;;;6.27;100.00;98738.66;2602374;28;20520;-84
2023/01/02 02:13:22;;;;;;;25.85;11.38;;;;;;;6.24;100.00;98744.72;2600217;28;20051;-84
2023/01/02 02:14:38;;;;;;;29.20;13.07;;;;;;;6.37;100.00;98748.13;2602103;28;20079;-84
2023/01/02 02:16:05;;;;;;;28.90;12.88;;;;;;;6.40;100.00;98749.84;2602339;28;20049;-84
2023/01/02 02:17:42;;;;;;;27.35;12.60;;;;;;;6.40;100.00;98750.72;2600685;28;20053;-85
2023/01/02 02:19:19;;;;;;;31.65;12.57;;;;;;;6.15;100.00;98739.59;2600563;28;20088;-85
2023/01/02 02:21:17;;;;;;;32.33;12.50;;;;;;;5.97;100.00;98745.72;2600489;28;20143;-85
2023/01/02 02:22:54;;;;;;;25.17;12.30;;;;;;;5.97;100.00;98740.50;2601472;28;20488;-84
2023/01/02 02:24:28;;;;;;;28.02;11.88;;;;;;;5.92;100.00;98737.94;2600319;28;20135;-85
2023/01/02 02:25:50;;;;;;;31.02;11.90;;;;;;;5.45;100.00;98734.63;2596256;28;20061;-84
2023/01/02 02:27:44;;;;;;;30.63;12.68;;;;;;;5.42;100.00;98735.47;2599755;28;20052;-85
2023/01/02 02:29:33;;;;;;;32.53;13.07;;;;;;;5.14;100.00;98729.50;2599909;28;20546;-87
2023/01/02 02:31:06;;;;;;;21.85;9.43;;;;;;;5.30;100.00;98720.81;2599888;28;20483;-83
2023/01/02 02:32:33;;;;;;;29.42;11.85;;;;;;;5.46;100.00;98724.25;2600007;28;20049;-84
2023/01/02 02:33:58;;;;;;;30.30;11.77;;;;;;;5.75;100.00;98723.28;2600087;28;20061;-85
2023/01/02 02:35:29;;;;;;;28.38;12.93;;;;;;;6.15;100.00;98719.66;2600464;28;20045;-83
2023/01/02 02:37:00;;;;;;;27.25;12.25;;;;;;;6.41;100.00;98725.56;2595662;28;20057;-87
2023/01/02 02:38:57;;;;;;;27.90;11.60;;;;;;;6.48;100.00;98727.25;2600962;28;20140;-84
2023/01/02 02:40:28;;;;;;;28.08;11.43;;;;;;;6.55;100.00;98726.31;2595066;28;20041;-84
2023/01/02 02:42:22;;;;;;;23.92;10.93;;;;;;;6.08;100.00;98726.63;2600763;28;20507;-84
2023/01/02 02:44:02;;;;;;;25.95;11.00;;;;;;;6.32;100.00;98722.16;2601680;28;20187;-85
2023/01/02 02:45:28;;;;;;;21.80;10.85;;;;;;;6.43;100.00;98723.84;2600741;28;20045;-84
2023/01/02 02:46:58;;;;;;;24.40;10.98;;;;;;;6.47;100.00;98718.56;2602445;28;20079;-87
2023/01/02 02:48:44;;;;;;;21.88;10.65;;;;;;;6.38;100.00;98718.66;2600981;28;20049;-84
2023/01/02 02:50:08;;;;;;;25.65;10.13;;;;;;;6.09;100.00;98722.28;2602355;28;20195;-85
2023/01/02 02:51:52;;;;;;;25.33;11.45;;;;;;;6.48;100.00;98722.06;2597258;28;20052;-84
2023/01/02 02:53:08;;;;;;;24.45;11.43;;;;;;;5.98;100.00;98717.09;2598420;28;20056;-86
2023/01/02 02:54:46;;;;;;;22.73;9.57;;;;;;;5.91;100.00;98725.81;2601564;28;20051;-84
2023/01/02 02:56:06;;;;;;;24.35;10.95;;;;;;;6.29;100.00;98727.38;2605430;28;20131;-83
2023/01/02 02:57:24;;;;;;;26.00;12.35;;;;;;;6.34;100.00;98716.94;2600156;28;20474;-85
2023/01/02 02:58:41;;;;;;;26.55;11.70;;;;;;;6.16;100.00;98720.53;2602059;28;20155;-84
2023/01/02 02:59:57;;;;;;;26.73;12.10;;;;;;;6.40;100.00;98716.91;2600916;28;20498;-84
2023/01/02 03:01:16;;;;;;;26.83;11.55;;;;;;;6.41;100.00;98708.22;2595802;28;20141;-84
2023/01/02 03:02:32;;;;;;;29.35;11.23;;;;;;;6.38;100.00;98712.56;2601470;28;20045;-84
2023/01/02 03:03:47;;;;;;;24.67;11.38;;;;;;;6.50;100.00;98705.56;2602032;28;20084;-87
2023/01/02 03:05:06;;;;;;;27.27;12.10;;;;;;;6.45;100.00;98698.66;2602854;28;20049;-86
2023/01/02 03:06:46;;;;;;;26.85;11.25;;;;;;;6.64;100.00;98691.59;2601394;28;20673;-85
2023/01/02 03:08:22;;;;;;;27.40;11.63;;;;;;;6.64;100.00;98687.25;2600504;28;20070;-84
2023/01/02 03:09:52;;;;;;;25.52;11.82;;;;;;;6.56;100.00;98689.03;2600345;28;20416;-89
2023/01/02 03:11:08;;;;;;;24.70;10.80;;;;;;;6.41;100.00;98684.81;2602353;28;20586;-86
2023/01/02 03:12:38;;;;;;;25.60;11.15;;;;;;;6.28;100.00;98685.78;2601870;28;20570;-84
2023/01/02 03:14:05;;;;;;;22.48;10.25;;;;;;;6.26;100.00;98683.19;2601731;28;20508;-88
2023/01/02 03:15:37;;;;;;;24.58;10.70;;;;;;;6.50;100.00;98676.97;2600684;28;20053;-84
2023/01/02 03:17:01;;;;;;;22.33;11.35;;;;;;;6.54;100.00;98682.13;2601613;28;20045;-84
2023/01/02 03:18:51;;;;;;;25.65;10.43;;;;;;;6.37;100.00;98672.72;2603839;28;20053;-84
2023/01/02 03:20:12;;;;;;;20.50;9.45;;;;;;;6.33;100.00;98671.00;2602820;28;20056;-85
2023/01/02 03:21:35;;;;;;;19.10;9.15;;;;;;;6.25;100.00;98665.00;2603476;28;20518;-84
2023/01/02 03:22:57;;;;;;;27.92;10.05;;;;;;;5.97;100.00;98671.19;2604077;28;20135;-85
2023/01/02 03:24:15;;;;;;;24.27;9.82;;;;;;;6.08;100.00;98679.81;2603403;28;20045;-87
2023/01/02 03:25:33;;;;;;;28.80;11.10;;;;;;;6.22;100.00;98671.06;2604813;28;20239;-85
2023/01/02 03:26:54;;;;;;;24.65;10.20;;;;;;;6.14;100.00;98680.66;2603104;28;20053;-89
2023/01/02 03:28:13;;;;;;;24.23;11.93;;;;;;;6.34;100.00;98677.91;2597780;28;20047;-84
2023/01/02 03:29:45;;;;;;;19.67;9.93;;;;;;;6.48;100.00;98675.22;2602789;28;20428;-89
2023/01/02 03:31:01;;;;;;;22.75;9.50;;;;;;;6.46;100.00;98679.59;2604632;28;20084;-84
2023/01/02 03:32:28;;;;;;;20.00;9.23;;;;;;;6.33;100.00;98679.69;2601525;28;20077;-87
2023/01/02 03:33:55;;;;;;;21.42;9.60;;;;;;;6.27;100.00;98682.28;2604373;28;20060;-86
2023/01/02 03:35:16;;;;;;;19.92;9.10;;;;;;;6.02;100.00;98681.59;2601864;28;20443;-85
2023/01/02 03:36:33;;;;;;;21.95;9.35;;;;;;;6.07;100.00;98691.09;2602833;28;20149;-85
2023/01/02 03:37:53;;;;;;;21.38;10.07;;;;;;;6.12;100.00;98687.59;2603972;28;20076;-84
2023/01/02 03:39:13;;;;;;;22.80;10.07;;;;;;;6.19;100.00;98689.31;2602299;28;20049;-84
2023/01/02 03:40:41;;;;;;;24.33;10.57;;;;;;;6.40;100.00;98682.22;2601469;28;20420;-84
2023/01/02 03:42:03;;;;;;;21.27;10.35;;;;;;;6.48;100.00;98683.88;2602164;28;20053;-84
2023/01/02 03:43:27;;;;;;;24.48;9.82;;;;;;;6.28;100.00;98683.19;2604227;28;20171;-84
2023/01/02 03:44:48;;;;;;;21.92;9.98;;;;;;;5.91;100.00;98679.03;2602389;28;20098;-86
2023/01/02 03:46:33;;;;;;;25.95;10.35;;;;;;;5.94;100.00;98685.09;2603150;28;20140;-83
2023/01/02 03:48:02;;;;;;;26.15;10.55;;;;;;;5.87;100.00;98685.97;2599078;28;20060;-85
2023/01/02 03:49:25;;;;;;;22.27;10.68;;;;;;;5.93;100.00;98688.53;2601617;28;20476;-85
2023/01/02 03:50:49;;;;;;;22.33;9.70;;;;;;;6.03;100.00;98678.13;2602096;28;20820;-84
2023/01/02 03:52:05;;;;;;;25.38;10.05;;;;;;;5.91;100.00;98679.03;2604032;28;20056;-88
2023/01/02 03:53:21;;;;;;;20.80;9.88;;;;;;;5.77;100.00;98682.56;2601731;28;20534;-84
2023/01/02 03:54:37;;;;;;;23.17;10.65;;;;;;;5.79;100.00;98675.63;2603316;28;20065;-84
2023/01/02 03:56:19;;;;;;;22.60;10.45;;;;;;;5.58;100.00;98680.91;2603476;28;20053;-84
2023/01/02 03:57:45;;;;;;;25.77;11.60;;;;;;;5.65;100.00;98673.06;2603202;28;20368;-84
2023/01/02 03:59:32;;;;;;;24.42;11.10;;;;;;;5.62;100.00;98685.22;2602856;28;20079;-84
2023/01/02 04:01:03;;;;;;;23.15;9.32;;;;;;;5.37;100.00;98680.13;2602065;28;20053;-85
2023/01/02 04:02:43;;;;;;;23.60;10.82;;;;;;;5.14;100.00;98678.44;2602502;28;20476;-84
2023/01/02 04:04:21;;;;;;;26.85;10.18;;;;;;;5.21;100.00;98676.69;2601883;28;20076;-87
2023/01/02 04:05:53;;;;;;;22.92;11.27;;;;;;;5.42;100.00;98680.09;2601868;28;20550;-84
2023/01/02 04:07:29;;;;;;;22.37;10.60;;;;;;;5.50;100.00;98680.91;2602282;28;20056;-84
2023/01/02 04:08:58;;;;;;;24.70;9.40;;;;;;;5.65;100.00;98680.84;2601017;28;20470;-84
2023/01/02 04:10:15;;;;;;;23.27;10.52;;;;;;;5.81;100.00;98673.03;2604383;28;20049;-88
2023/01/02 04:11:32;;;;;;;24.70;10.43;;;;;;;5.82;100.00;98674.75;2601614;28;20076;-84
2023/01/02 04:12:53;;;;;;;24.23;9.93;;;;;;;5.94;100.00;98664.28;2601865;28;20049;-86
2023/01/02 04:14:15;;;;;;;21.13;9.57;;;;;;;5.93;100.00;98677.28;2597629;28;20068;-84
2023/01/02 04:15:34;;;;;;;31.17;11.25;;;;;;;5.63;100.00;98664.41;2602594;28;20076;-84
2023/01/02 04:16:52;;;;;;;24.08;10.60;;;;;;;5.88;100.00;98669.50;2601976;28;20073;-87
2023/01/02 04:18:14;;;;;;;25.30;10.65;;;;;;;5.57;100.00;98666.19;2601286;28;20049;-84
2023/01/02 04:19:37;;;;;;;26.67;11.65;;;;;;;5.58;100.00;98665.31;2599462;28;20041;-84
2023/01/02 04:20:56;;;;;;;25.05;10.57;;;;;;;5.17;100.00;98670.66;2602753;28;20664;-86
2023/01/02 04:22:26;;;;;;;29.27;11.98;;;;;;;5.27;100.00;98666.31;2601590;28;20060;-83
2023/01/02 04:23:55;;;;;;;25.17;10.50;;;;;;;5.54;100.00;98661.00;2601586;28;20493;-82
2023/01/02 04:25:14;;;;;;;26.05;11.05;;;;;;;5.90;100.00;98659.97;2600781;28;20507;-83
2023/01/02 04:26:40;;;;;;;25.45;11.48;;;;;;;6.00;100.00;98641.72;2603783;28;20075;-87
2023/01/02 04:28:00;;;;;;;22.52;10.82;;;;;;;5.93;100.00;98646.09;2603414;28;20488;-87
2023/01/02 04:29:15;;;;;;;26.80;11.60;;;;;;;5.82;100.00;98640.09;2600405;28;20049;-86
2023/01/02 04:30:36;;;;;;;23.27;11.35;;;;;;;5.97;100.00;98627.00;2603711;28;20053;-86
2023/01/02 04:32:06;;;;;;;26.60;12.05;;;;;;;5.96;100.00;98625.28;2601865;28;20056;-86
2023/01/02 04:33:23;;;;;;;23.75;10.52;;;;;;;5.90;100.00;98620.97;2601916;28;20045;-89
2023/01/02 04:34:40;;;;;;;24.52;10.10;;;;;;;6.05;100.00;98617.47;2602650;28;20041;-85
2023/01/02 04:35:56;;;;;;;23.55;9.60;;;;;;;6.20;100.00;98620.81;2597520;28;20462;-86
2023/01/02 04:37:29;;;;;;;24.27;10.05;;;;;;;6.24;100.00;98616.47;2602713;28;20083;-88
2023/01/02 04:38:45;;;;;;;21.45;9.70;;;;;;;6.11;100.00;98618.28;2604109;28;20128;-86
2023/01/02 04:40:20;;;;;;;20.52;9.48;;;;;;;5.98;100.00;98620.94;2602747;28;20385;-86
2023/01/02 04:41:38;;;;;;;21.55;9.10;;;;;;;5.71;100.00;98622.81;2602171;28;20148;-87
2023/01/02 04:42:54;;;;;;;20.17;8.93;;;;;;;5.79;100.00;98625.38;2601090;28;20055;-86
2023/01/02 04:44:09;;;;;;;21.25;8.65;;;;;;;6.07;100.00;98623.50;2603061;28;20051;-86
2023/01/02 04:45:25;;;;;;;22.52;9.32;;;;;;;6.12;100.00;98622.59;2597341;28;20364;-86
2023/01/02 04:46:40;;;;;;;20.25;9.15;;;;;;;6.02;100.00;98627.00;2604020;28;20425;-87
2023/01/02 04:47:56;;;;;;;27.05;11.55;;;;;;;6.07;100.00;98626.13;2602046;28;20050;-86
2023/01/02 04:49:11;;;;;;;24.80;10.77;;;;;;;6.12;100.00;98633.88;2602307;28;20049;-87
2023/01/02 04:50:27;;;;;;;24.85;10.90;;;;;;;6.25;100.00;98632.03;2602859;28;20049;-86
2023/01/02 04:51:43;;;;;;;28.98;11.93;;;;;;;6.22;100.00;98629.47;2601895;28;20049;-87
2023/01/02 04:52:59;;;;;;;26.15;11.18;;;;;;;6.19;100.00;98629.50;2602851;28;20408;-86
2023/01/02 04:54:14;;;;;;;20.85;10.15;;;;;;;6.10;100.00;98622.63;2602187;28;20076;-86
2023/01/02 04:55:30;;;;;;;24.85;11.80;;;;;;;6.12;100.00;98625.22;2602940;28;20079;-86
2023/01/02 04:56:45;;;;;;;24.60;10.82;;;;;;;6.08;100.00;98625.25;2603186;28;20076;-86
2023/01/02 04:58:01;;;;;;;24.27;11.63;;;;;;;5.98;100.00;98626.13;2602836;28;20534;-89
2023/01/02 04:59:17;;;;;;;21.33;10.55;;;;;;;5.92;100.00;98619.22;2601983;28;20057;-86
2023/01/02 05:00:33;;;;;;;25.48;10.93;;;;;;;5.86;100.00;98616.69;2597190;28;20256;-87
2023/01/02 05:01:49;;;;;;;26.77;11.10;;;;;;;5.71;100.00;98611.59;2603256;28;20088;-87
2023/01/02 05:03:04;;;;;;;24.67;11.48;;;;;;;5.67;100.00;98612.47;2601725;28;20040;-87
2023/01/02 05:04:20;;;;;;;25.08;11.13;;;;;;;5.37;100.00;98612.59;2603364;28;20667;-85
2023/01/02 05:05:35;;;;;;;24.60;10.55;;;;;;;5.07;100.00;98614.44;2601652;28;20052;-86
2023/01/02 05:06:51;;;;;;;24.63;10.98;;;;;;;4.87;100.00;98615.34;2602017;28;20057;-89
2023/01/02 05:08:07;;;;;;;26.50;11.48;;;;;;;5.13;100.00;98616.16;2603361;28;20060;-87
2023/01/02 05:09:22;;;;;;;24.67;11.23;;;;;;;4.73;100.00;98611.91;2602605;28;20049;-86
2023/01/02 05:10:38;;;;;;;23.38;10.10;;;;;;;4.76;100.00;98612.78;2601650;28;21118;-86
2023/01/02 05:11:54;;;;;;;26.15;11.13;;;;;;;4.95;100.00;98613.59;2602500;28;20049;-86
2023/01/02 05:13:09;;;;;;;24.02;10.45;;;;;;;4.71;100.00;98621.44;2601406;28;20056;-86
2023/01/02 05:14:25;;;;;;;22.50;10.07;;;;;;;4.57;100.00;98619.72;2602408;28;20053;-85
2023/01/02 05:15:41;;;;;;;25.05;10.27;;;;;;;4.66;100.00;98616.25;2602594;28;20053;-86
2023/01/02 05:16:56;;;;;;;22.95;10.32;;;;;;;4.84;100.00;98630.91;2596930;28;20128;-86
2023/01/02 05:18:12;;;;;;;22.92;10.27;;;;;;;4.83;100.00;98615.38;2603125;28;20053;-89
2023/01/02 05:19:27;;;;;;;20.10;9.93;;;;;;;4.82;100.00;98622.28;2603505;28;20056;-88
2023/01/02 05:20:43;;;;;;;28.08;10.75;;;;;;;4.83;100.00;98613.63;2601631;28;20132;-86
2023/01/02 05:23:48;;;;;;;24.77;9.60;;;;;;;4.81;100.00;98611.03;2601721;28;20173;-89
2023/01/02 05:25:04;;;;;;;24.33;10.00;;;;;;;5.13;100.00;98610.97;2602211;28;20128;-86
2023/01/02 05:26:20;;;;;;;27.77;11.48;;;;;;;5.20;100.00;98603.16;2603252;28;20045;-90
2023/01/02 05:27:35;;;;;;;22.15;10.20;;;;;;;5.16;100.00;98597.97;2601370;28;20496;-85
2023/01/02 05:28:52;;;;;;;20.13;8.98;;;;;;;5.07;100.00;98601.47;2601094;28;20045;-86
2023/01/02 05:30:08;;;;;;;20.35;9.23;;;;;;;4.98;100.00;98601.50;2600230;28;20139;-87
2023/01/02 05:31:25;;;;;;;21.70;9.05;;;;;;;5.06;100.00;98600.59;2601384;28;20045;-86
2023/01/02 05:32:41;;;;;;;20.35;8.70;;;;;;;5.20;100.00;98600.56;2602073;28;20068;-86
2023/01/02 05:33:58;;;;;;;22.20;9.10;;;;;;;5.23;100.00;98597.06;2601180;28;20049;-87
2023/01/02 05:35:14;;;;;;;16.85;7.97;;;;;;;5.25;100.00;98594.47;2602315;28;20488;-88
2023/01/02 05:36:29;;;;;;;21.02;8.57;;;;;;;5.20;100.00;98600.56;2601293;28;20057;-87
2023/01/02 05:37:45;;;;;;;19.80;8.93;;;;;;;4.82;100.00;98606.72;2601551;28;20049;-88
2023/01/02 05:39:01;;;;;;;19.85;8.55;;;;;;;5.04;100.00;98617.06;2600899;28;20053;-87
2023/01/02 05:40:16;;;;;;;20.77;9.45;;;;;;;4.94;100.00;98619.66;2602179;28;20045;-86
2023/01/02 05:41:32;;;;;;;28.20;11.68;;;;;;;4.73;100.00;98622.28;2600545;28;20045;-86
2023/01/02 05:42:48;;;;;;;35.83;13.02;;;;;;;4.84;100.00;98630.06;2596788;28;20081;-86
2023/01/02 05:44:08;;;;;;;30.98;12.50;;;;;;;5.01;100.00;98622.22;2601251;28;20397;-89
2023/01/02 05:45:25;;;;;;;26.80;12.25;;;;;;;5.11;100.00;98629.13;2601215;28;20052;-87
2023/01/02 05:46:40;;;;;;;29.83;12.52;;;;;;;4.79;100.00;98622.28;2601868;28;20091;-90
2023/01/02 05:47:56;;;;;;;37.17;12.98;;;;;;;4.81;100.00;98618.81;2600037;28;20084;-86
2023/01/02 05:49:12;;;;;;;25.25;12.27;;;;;;;4.77;100.00;98616.25;2596640;28;20451;-86
2023/01/02 05:50:27;;;;;;;29.50;12.73;;;;;;;4.61;100.00;98613.69;2601119;28;20641;-86
2023/01/02 05:51:43;;;;;;;28.83;12.68;;;;;;;4.79;100.00;98604.13;2602343;28;20419;-86
2023/01/02 05:52:59;;;;;;;26.55;12.15;;;;;;;4.88;100.00;98604.09;2602392;28;20076;-86
2023/01/02 05:54:14;;;;;;;27.98;11.77;;;;;;;4.87;100.00;98610.16;2601493;28;20041;-86
2023/01/02 05:55:30;;;;;;;26.52;12.02;;;;;;;4.72;100.00;98608.47;2602495;28;20049;-86
2023/01/02 05:56:46;;;;;;;25.25;10.98;;;;;;;4.51;100.00;98610.22;2602500;28;20131;-86
2023/01/02 05:58:01;;;;;;;25.98;11.10;;;;;;;4.46;100.00;98603.28;2600642;28;20436;-86
2023/01/02 05:59:17;;;;;;;25.58;11.70;;;;;;;4.03;100.00;98610.19;2601671;28;20104;-86
2023/01/02 06:00:32;;;;;;;27.45;11.57;;;;;;;4.18;100.00;98605.88;2601747;28;20547;-86
2023/01/02 06:01:48;;;;;;;27.08;11.57;;;;;;;4.22;100.00;98610.22;2596616;28;20053;-86
2023/01/02 06:03:04;;;;;;;32.40;14.13;;;;;;;4.39;100.00;98602.44;2599729;28;20084;-86
2023/01/02 06:04:20;;;;;;;37.63;15.60;;;;;;;4.59;100.00;98594.63;2601809;28;20448;-86
2023/01/02 06:05:35;;;;;;;49.78;17.98;;;;;;;4.49;100.00;98591.19;2600219;28;20080;-85
2023/01/02 06:06:51;;;;;;;45.60;17.75;;;;;;;4.61;100.00;98592.06;2602296;28;20060;-86
2023/01/02 06:08:07;;;;;;;58.70;21.13;;;;;;;4.61;100.00;98592.94;2596393;28;20136;-85
2023/01/02 06:09:22;;;;;;;48.35;18.40;;;;;;;4.51;100.00;98601.59;2600702;28;20122;-91
2023/01/02 06:10:38;;;;;;;47.40;17.23;;;;;;;4.32;100.00;98598.97;2600898;28;20049;-88
2023/01/02 06:11:53;;;;;;;31.85;12.45;;;;;;;4.32;100.00;98604.16;2601398;28;20722;-87
2023/01/02 06:13:09;;;;;;;22.00;9.55;;;;;;;4.48;100.00;98601.59;2600565;28;20526;-86